Time;durP1;ratioP1;P1;durP2;ratioP2;P2;SDS_P1;SDS_P2;PMS_P1;PMS_P2;Temp;Humidity;BMP_temperature;BMP_pressure;BME280_temperature;BME280_humidity;BME280_pressure;Samples;Min_cycle;Max_cycle;Signal;HPM_P1;HPM_P2
2022/02/16 00:02:27;;;;;;;0.70;0.70;;;6.50;99.90;;;;;;5044611;28;21112;-76
2022/02/16 00:04:56;;;;;;;0.93;0.93;;;6.40;99.90;;;;;;5043237;28;20460;-77
2022/02/16 00:07:25;;;;;;;0.90;0.90;;;6.60;99.90;;;;;;5043153;28;20201;-76
2022/02/16 00:09:54;;;;;;;0.95;0.60;;;6.60;99.90;;;;;;5038754;28;20202;-76
2022/02/16 00:12:22;;;;;;;1.20;0.70;;;6.70;99.90;;;;;;5041169;28;20462;-76
2022/02/16 00:14:50;;;;;;;0.75;0.75;;;6.60;99.90;;;;;;5045343;28;20193;-76
2022/02/16 00:17:18;;;;;;;0.82;0.82;;;6.60;99.90;;;;;;5043290;28;20205;-76
2022/02/16 00:19:46;;;;;;;1.98;0.90;;;6.60;99.90;;;;;;5045676;28;20202;-75
2022/02/16 00:22:15;;;;;;;0.75;0.70;;;6.40;99.90;;;;;;5042929;28;20639;-75
2022/02/16 00:24:44;;;;;;;1.00;0.90;;;6.50;99.90;;;;;;5049710;28;20193;-77
2022/02/16 00:27:13;;;;;;;0.97;0.97;;;6.50;99.90;;;;;;5044851;28;20464;-76
2022/02/16 00:29:41;;;;;;;0.88;0.77;;;6.60;99.90;;;;;;5041760;28;20515;-76
2022/02/16 00:32:10;;;;;;;1.75;0.93;;;6.80;99.90;;;;;;5039695;28;20271;-76
2022/02/16 00:34:38;;;;;;;0.70;0.70;;;6.80;99.90;;;;;;5041899;28;20202;-76
2022/02/16 00:37:06;;;;;;;2.00;0.80;;;6.90;99.90;;;;;;5041104;28;20833;-76
2022/02/16 00:39:34;;;;;;;1.80;0.80;;;6.80;99.90;;;;;;5041907;28;20202;-77
2022/02/16 00:42:04;;;;;;;0.70;0.70;;;6.70;99.90;;;;;;5046788;28;20545;-76
2022/02/16 00:44:33;;;;;;;1.88;0.77;;;6.70;99.90;;;;;;5046379;28;20210;-76
2022/02/16 00:47:01;;;;;;;0.90;0.90;;;6.90;99.90;;;;;;5047194;28;20204;-76
2022/02/16 00:49:29;;;;;;;1.80;0.70;;;7.10;99.90;;;;;;5046132;28;20900;-77
2022/02/16 00:51:57;;;;;;;2.40;0.70;;;7.40;99.90;;;;;;5041462;28;20495;-78
2022/02/16 00:54:27;;;;;;;0.67;0.60;;;7.10;99.90;;;;;;5043380;28;21197;-76
2022/02/16 00:56:57;;;;;;;0.85;0.85;;;7.00;99.90;;;;;;5045089;28;20459;-75
2022/02/16 00:59:27;;;;;;;0.70;0.70;;;7.00;99.90;;;;;;5036151;28;20186;-76
2022/02/16 01:01:55;;;;;;;0.70;0.60;;;6.90;99.90;;;;;;5038345;28;20224;-76
2022/02/16 01:04:24;;;;;;;1.43;0.70;;;6.90;99.90;;;;;;5036832;28;20470;-76
2022/02/16 01:06:52;;;;;;;0.70;0.70;;;6.90;99.90;;;;;;5043679;28;20452;-76
2022/02/16 01:09:21;;;;;;;0.63;0.60;;;6.90;99.90;;;;;;5041633;28;20576;-75
2022/02/16 01:11:49;;;;;;;0.68;0.63;;;6.60;99.90;;;;;;5039572;28;20272;-76
2022/02/16 01:14:17;;;;;;;3.05;1.15;;;6.60;99.90;;;;;;5042819;28;20198;-75
2022/02/16 01:16:47;;;;;;;0.60;0.60;;;7.00;99.90;;;;;;5039076;28;20205;-76
2022/02/16 01:19:15;;;;;;;3.33;0.80;;;6.70;99.90;;;;;;5043936;28;20220;-76
2022/02/16 01:21:43;;;;;;;0.60;0.60;;;6.70;99.90;;;;;;5041246;28;20866;-76
2022/02/16 01:24:11;;;;;;;1.85;0.70;;;6.70;99.90;;;;;;5040935;28;20278;-76
2022/02/16 01:26:39;;;;;;;1.07;0.60;;;6.60;99.90;;;;;;5041997;28;20200;-76
2022/02/16 01:29:08;;;;;;;1.23;0.80;;;6.90;99.90;;;;;;5040254;28;20467;-76
2022/02/16 01:31:36;;;;;;;0.80;0.60;;;6.70;99.90;;;;;;5039457;28;20566;-76
2022/02/16 01:34:05;;;;;;;0.70;0.70;;;6.70;99.90;;;;;;5044055;28;20476;-76
2022/02/16 01:36:34;;;;;;;0.60;0.60;;;6.70;99.90;;;;;;5041138;28;20462;-76
2022/02/16 01:39:02;;;;;;;1.15;0.60;;;6.60;99.90;;;;;;5038844;28;20193;-76
2022/02/16 01:41:30;;;;;;;1.27;0.60;;;6.70;99.90;;;;;;5039334;28;20224;-77
2022/02/16 01:43:59;;;;;;;0.85;0.60;;;6.70;99.90;;;;;;5040143;28;20198;-76
2022/02/16 01:46:27;;;;;;;1.27;0.70;;;6.50;99.90;;;;;;5039982;28;20197;-78
2022/02/16 01:48:56;;;;;;;1.05;0.95;;;6.60;99.90;;;;;;5046085;28;20221;-77
2022/02/16 01:51:25;;;;;;;1.00;0.70;;;6.60;99.90;;;;;;5040135;28;20228;-76
2022/02/16 01:53:54;;;;;;;1.15;0.70;;;6.60;99.90;;;;;;5043543;28;20190;-76
2022/02/16 01:56:22;;;;;;;0.98;0.85;;;6.50;99.90;;;;;;5039896;28;20206;-78
2022/02/16 01:58:50;;;;;;;0.70;0.60;;;6.40;99.90;;;;;;5040731;28;20775;-76
2022/02/16 02:01:18;;;;;;;1.15;0.80;;;6.40;99.90;;;;;;5038116;28;20226;-76
2022/02/16 02:03:46;;;;;;;0.63;0.63;;;6.40;99.90;;;;;;5039977;28;20206;-76
2022/02/16 02:06:14;;;;;;;0.88;0.63;;;6.50;99.90;;;;;;5042444;28;20209;-76
2022/02/16 02:08:44;;;;;;;3.05;1.20;;;6.60;99.90;;;;;;5040449;28;20207;-75
2022/02/16 02:11:12;;;;;;;0.68;0.60;;;6.60;99.90;;;;;;5038760;28;20236;-77
2022/02/16 02:13:54;;;;;;;1.75;0.65;;;6.50;99.90;;;;;;5039302;28;20657;-77
2022/02/16 02:16:22;;;;;;;1.08;0.70;;;6.40;99.90;;;;;;5037528;28;20878;-76
2022/02/16 02:18:50;;;;;;;0.60;0.60;;;6.30;99.90;;;;;;5037492;28;20205;-76
2022/02/16 02:21:21;;;;;;;2.20;0.63;;;6.40;99.90;;;;;;5040866;28;20224;-76
2022/02/16 02:23:50;;;;;;;1.27;0.75;;;6.40;99.90;;;;;;5040238;28;20471;-76
2022/02/16 02:26:20;;;;;;;1.63;0.80;;;6.60;99.90;;;;;;5041696;28;20288;-77
2022/02/16 02:28:49;;;;;;;2.35;0.70;;;6.60;99.90;;;;;;5038431;28;20591;-77
2022/02/16 02:31:17;;;;;;;0.90;0.90;;;6.70;99.90;;;;;;5042035;28;20244;-76
2022/02/16 02:33:45;;;;;;;0.70;0.70;;;6.60;99.90;;;;;;5037408;28;20192;-76
2022/02/16 02:36:13;;;;;;;0.50;0.50;;;6.60;99.90;;;;;;5042943;28;20198;-77
2022/02/16 02:38:43;;;;;;;1.13;0.70;;;6.70;99.90;;;;;;5041379;28;20208;-77
2022/02/16 02:41:11;;;;;;;0.60;0.60;;;6.70;99.90;;;;;;5040816;28;20478;-78
2022/02/16 02:43:41;;;;;;;0.68;0.68;;;6.60;99.90;;;;;;5040324;28;20198;-76
2022/02/16 02:46:09;;;;;;;0.73;0.55;;;6.80;99.90;;;;;;5039268;28;20258;-76
2022/02/16 02:48:37;;;;;;;0.73;0.67;;;6.50;99.90;;;;;;5037906;28;20224;-77
2022/02/16 02:51:06;;;;;;;1.38;0.60;;;6.50;99.90;;;;;;5043574;28;20486;-78
2022/02/16 02:53:35;;;;;;;0.80;0.57;;;6.60;99.90;;;;;;5043856;28;21660;-77
2022/02/16 02:56:06;;;;;;;1.40;0.68;;;6.70;99.90;;;;;;5040591;28;20869;-77
2022/02/16 02:58:34;;;;;;;2.72;0.60;;;6.70;99.90;;;;;;5039125;28;20203;-77
2022/02/16 03:01:03;;;;;;;2.25;1.50;;;6.80;99.90;;;;;;5032633;28;20225;-79
2022/02/16 03:03:33;;;;;;;0.70;0.52;;;6.90;99.90;;;;;;5055012;28;20250;-77
2022/02/16 03:06:02;;;;;;;0.70;0.63;;;6.90;99.90;;;;;;5040895;28;20224;-78
2022/02/16 03:08:30;;;;;;;1.15;0.70;;;6.90;99.90;;;;;;5040246;28;20947;-76
2022/02/16 03:10:58;;;;;;;1.30;0.65;;;7.30;99.90;;;;;;5040710;28;20251;-77
2022/02/16 03:13:28;;;;;;;1.70;0.50;;;6.80;99.90;;;;;;5041491;28;20205;-77
2022/02/16 03:15:57;;;;;;;0.80;0.80;;;6.90;99.90;;;;;;5041748;28;20452;-77
2022/02/16 03:18:25;;;;;;;0.90;0.60;;;6.90;99.90;;;;;;5039900;28;20468;-77
2022/02/16 03:20:54;;;;;;;1.88;0.68;;;7.10;99.90;;;;;;5048979;28;20464;-78
2022/02/16 03:23:23;;;;;;;2.90;0.70;;;7.00;99.90;;;;;;5046641;28;20229;-78
2022/02/16 03:25:51;;;;;;;3.00;0.70;;;6.90;99.90;;;;;;5043728;28;20532;-78
2022/02/16 03:28:19;;;;;;;1.17;0.60;;;6.70;99.90;;;;;;5045937;28;20209;-77
2022/02/16 03:30:49;;;;;;;2.35;0.60;;;6.80;99.90;;;;;;5038794;28;20899;-77
2022/02/16 03:33:32;;;;;;;0.80;0.70;;;7.00;99.90;;;;;;5042902;28;20208;-77
2022/02/16 03:36:00;;;;;;;0.50;0.50;;;7.10;99.90;;;;;;5044881;28;20445;-77
2022/02/16 03:38:29;;;;;;;0.83;0.60;;;7.10;99.90;;;;;;5044926;28;21022;-77
2022/02/16 03:40:59;;;;;;;0.77;0.60;;;7.00;99.90;;;;;;5043038;28;20479;-78
2022/02/16 03:43:27;;;;;;;0.60;0.60;;;7.10;99.90;;;;;;5039126;28;20491;-77
2022/02/16 03:45:57;;;;;;;0.93;0.60;;;7.00;99.90;;;;;;5041870;28;20202;-76
2022/02/16 03:48:25;;;;;;;0.80;0.50;;;7.20;99.90;;;;;;5038534;28;20809;-77
2022/02/16 03:50:53;;;;;;;0.60;0.60;;;7.10;99.90;;;;;;5041957;28;20510;-78
2022/02/16 03:53:24;;;;;;;0.50;0.50;;;7.10;99.90;;;;;;5049724;28;20459;-76
2022/02/16 03:55:52;;;;;;;0.57;0.57;;;7.00;99.90;;;;;;5041457;28;20465;-75
2022/02/16 03:58:20;;;;;;;1.95;0.60;;;6.90;99.90;;;;;;5041998;28;20205;-78
2022/02/16 04:00:48;;;;;;;0.50;0.50;;;6.90;99.90;;;;;;5039321;28;20213;-77
2022/02/16 04:03:18;;;;;;;0.70;0.70;;;7.10;99.90;;;;;;5044416;28;20451;-76
2022/02/16 04:05:46;;;;;;;0.50;0.50;;;7.30;99.90;;;;;;5043524;28;20446;-77
2022/02/16 04:08:14;;;;;;;2.15;0.50;;;7.10;99.90;;;;;;5047153;28;20474;-78
2022/02/16 04:10:45;;;;;;;0.80;0.50;;;7.00;99.90;;;;;;5042036;28;20217;-77
2022/02/16 04:13:13;;;;;;;0.60;0.40;;;7.00;99.90;;;;;;5041545;28;20478;-77
2022/02/16 04:15:41;;;;;;;0.83;0.50;;;7.20;99.90;;;;;;5040575;28;20447;-77
2022/02/16 04:18:09;;;;;;;1.47;0.60;;;7.40;99.90;;;;;;5043435;28;20917;-77
2022/02/16 04:20:39;;;;;;;0.60;0.60;;;7.30;99.90;;;;;;5044969;28;20482;-76
2022/02/16 04:23:09;;;;;;;0.53;0.50;;;7.30;99.90;;;;;;5046738;28;20463;-77
2022/02/16 04:25:37;;;;;;;1.13;0.57;;;7.40;99.90;;;;;;5041509;28;20541;-76
2022/02/16 04:28:06;;;;;;;0.63;0.63;;;7.20;99.90;;;;;;5040712;28;20573;-76
2022/02/16 04:30:35;;;;;;;0.50;0.47;;;7.10;99.90;;;;;;5045026;28;20480;-76
2022/02/16 04:33:03;;;;;;;0.50;0.50;;;7.20;99.90;;;;;;5043606;28;20688;-76
2022/02/16 04:35:31;;;;;;;0.50;0.50;;;7.40;99.90;;;;;;5042183;28;20455;-77
2022/02/16 04:38:01;;;;;;;0.53;0.53;;;7.20;99.90;;;;;;5043701;28;20453;-76
2022/02/16 04:40:29;;;;;;;0.60;0.60;;;7.10;99.90;;;;;;5040850;28;20471;-77
2022/02/16 04:42:58;;;;;;;1.53;0.50;;;7.30;99.90;;;;;;5041195;28;20471;-77
2022/02/16 04:45:26;;;;;;;0.73;0.60;;;7.40;99.90;;;;;;5034834;28;20452;-76
2022/02/16 04:47:54;;;;;;;0.40;0.40;;;7.50;99.90;;;;;;5041836;28;21829;-77
2022/02/16 04:50:23;;;;;;;0.53;0.50;;;7.50;99.90;;;;;;5044097;28;20498;-77
2022/02/16 04:52:54;;;;;;;0.90;0.50;;;7.30;99.90;;;;;;5043712;28;20455;-76
2022/02/16 04:55:26;;;;;;;0.40;0.40;;;7.20;99.90;;;;;;5042852;28;20490;-76
2022/02/16 04:57:55;;;;;;;0.67;0.50;;;7.20;99.90;;;;;;5041954;28;21135;-77
2022/02/16 05:00:25;;;;;;;2.10;0.50;;;7.10;99.90;;;;;;5037139;28;20690;-77
2022/02/16 05:02:53;;;;;;;0.47;0.47;;;7.00;99.90;;;;;;5040805;28;20455;-78
2022/02/16 05:05:22;;;;;;;0.50;0.50;;;7.00;99.90;;;;;;5044871;28;20538;-76
2022/02/16 05:07:50;;;;;;;1.13;0.60;;;7.00;99.90;;;;;;5040384;28;21018;-77
2022/02/16 05:10:18;;;;;;;2.05;0.50;;;7.10;99.90;;;;;;5042596;28;20705;-76
2022/02/16 05:12:48;;;;;;;0.50;0.50;;;7.00;99.90;;;;;;5043104;28;20635;-76
2022/02/16 05:15:16;;;;;;;1.40;0.47;;;7.20;99.90;;;;;;5043756;28;20455;-75
2022/02/16 05:17:44;;;;;;;0.60;0.60;;;7.40;99.90;;;;;;5044476;28;20964;-76
2022/02/16 05:20:13;;;;;;;1.40;0.80;;;7.40;99.90;;;;;;5041216;28;20447;-76
2022/02/16 05:22:41;;;;;;;1.40;0.80;;;7.50;99.90;;;;;;5040996;28;20967;-77
2022/02/16 05:25:10;;;;;;;0.60;0.60;;;7.70;99.90;;;;;;5041687;28;20527;-77
2022/02/16 05:27:39;;;;;;;0.70;0.60;;;7.80;99.90;;;;;;5037337;28;20444;-77
2022/02/16 05:30:10;;;;;;;0.80;0.70;;;7.70;99.90;;;;;;5037125;28;20448;-76
2022/02/16 05:32:38;;;;;;;0.93;0.40;;;7.50;99.90;;;;;;5038005;28;20514;-75
2022/02/16 05:35:09;;;;;;;0.80;0.77;;;7.50;99.90;;;;;;5039951;28;20485;-76
2022/02/16 05:37:37;;;;;;;0.60;0.60;;;7.60;99.90;;;;;;5034572;28;20560;-75
2022/02/16 05:40:06;;;;;;;0.67;0.50;;;7.10;99.90;;;;;;5033622;28;20462;-76
2022/02/16 05:42:36;;;;;;;0.50;0.50;;;7.20;99.90;;;;;;5041035;28;20495;-77
2022/02/16 05:45:08;;;;;;;0.50;0.50;;;7.10;99.90;;;;;;5037225;28;21047;-77
2022/02/16 05:47:36;;;;;;;0.60;0.50;;;7.30;99.90;;;;;;5037993;28;20895;-76
2022/02/16 05:50:07;;;;;;;1.60;0.63;;;7.30;99.90;;;;;;5043330;28;20443;-77
2022/02/16 05:52:36;;;;;;;0.90;0.90;;;6.90;99.90;;;;;;5048914;28;20471;-77
2022/02/16 05:55:05;;;;;;;0.40;0.40;;;7.10;99.90;;;;;;5042070;28;20479;-76
2022/02/16 05:57:35;;;;;;;0.47;0.47;;;7.30;99.90;;;;;;5039534;28;20897;-77
2022/02/16 06:00:04;;;;;;;0.70;0.60;;;7.30;99.90;;;;;;5037715;28;20445;-77
2022/02/16 06:02:35;;;;;;;1.87;0.70;;;7.30;99.90;;;;;;5034172;28;20452;-76
2022/02/16 06:05:03;;;;;;;0.63;0.40;;;7.00;99.90;;;;;;5041309;28;21382;-76
2022/02/16 06:07:31;;;;;;;1.33;0.50;;;7.00;99.90;;;;;;5038135;28;20460;-76
2022/02/16 06:09:59;;;;;;;0.60;0.60;;;7.00;99.90;;;;;;5039704;28;20455;-77
2022/02/16 06:12:28;;;;;;;0.50;0.50;;;7.10;99.90;;;;;;5038798;28;20463;-77
2022/02/16 06:14:56;;;;;;;0.40;0.40;;;7.30;99.90;;;;;;5040330;28;21061;-76
2022/02/16 06:17:25;;;;;;;0.83;0.50;;;7.50;99.90;;;;;;5042250;28;20467;-76
2022/02/16 06:19:54;;;;;;;1.70;0.47;;;7.60;99.90;;;;;;5032870;28;20451;-77
2022/02/16 06:22:23;;;;;;;0.50;0.50;;;7.40;99.90;;;;;;5032309;28;20448;-77
2022/02/16 06:24:51;;;;;;;0.40;0.40;;;7.40;99.90;;;;;;5036118;28;20455;-75
2022/02/16 06:27:19;;;;;;;0.60;0.60;;;7.30;99.90;;;;;;5039372;28;20445;-76
2022/02/16 06:29:47;;;;;;;0.93;0.50;;;7.20;99.90;;;;;;5039444;28;20481;-75
2022/02/16 06:32:16;;;;;;;3.20;0.50;;;7.00;99.90;;;;;;5037455;28;20499;-77
2022/02/16 06:34:44;;;;;;;0.40;0.40;;;7.20;99.90;;;;;;5035157;28;21013;-77
2022/02/16 06:37:17;;;;;;;0.40;0.40;;;7.10;99.90;;;;;;5033498;28;20460;-76
2022/02/16 06:39:46;;;;;;;0.70;0.40;;;6.90;99.90;;;;;;5034228;28;20976;-76
2022/02/16 06:42:14;;;;;;;1.10;0.60;;;6.80;99.90;;;;;;5029801;28;21197;-76
2022/02/16 06:44:42;;;;;;;0.50;0.50;;;7.00;99.90;;;;;;5030154;28;21076;-77
2022/02/16 06:47:13;;;;;;;0.60;0.60;;;7.30;99.90;;;;;;5034174;28;20443;-76
2022/02/16 06:49:41;;;;;;;0.43;0.43;;;7.40;99.90;;;;;;5033950;28;20443;-78
2022/02/16 06:52:09;;;;;;;0.50;0.50;;;7.30;99.90;;;;;;5038373;28;20555;-76
2022/02/16 06:54:39;;;;;;;0.40;0.40;;;7.30;99.90;;;;;;5036278;28;20546;-76
2022/02/16 06:57:07;;;;;;;0.83;0.50;;;7.20;99.90;;;;;;5038405;28;21726;-76
2022/02/16 06:59:35;;;;;;;3.13;0.80;;;7.30;99.90;;;;;;5039923;28;20813;-76
2022/02/16 07:02:04;;;;;;;0.50;0.50;;;7.30;99.90;;;;;;5036187;28;20478;-76
2022/02/16 07:04:32;;;;;;;0.40;0.40;;;7.50;99.90;;;;;;5036500;28;20462;-78
2022/02/16 07:07:01;;;;;;;1.53;0.50;;;7.40;99.90;;;;;;5042760;28;21124;-76
2022/02/16 07:09:29;;;;;;;0.53;0.50;;;7.30;99.90;;;;;;5049533;28;20526;-78
2022/02/16 07:11:58;;;;;;;0.50;0.50;;;7.40;99.90;;;;;;5047444;28;21126;-76
2022/02/16 07:14:27;;;;;;;0.50;0.50;;;7.30;99.90;;;;;;5044895;28;20283;-77
2022/02/16 07:16:56;;;;;;;0.50;0.50;;;7.30;99.90;;;;;;5038120;28;20596;-77
2022/02/16 07:19:26;;;;;;;0.40;0.40;;;7.20;99.90;;;;;;5040858;28;20459;-76
2022/02/16 07:21:55;;;;;;;0.60;0.60;;;7.40;99.90;;;;;;5048870;28;20471;-75
2022/02/16 07:24:23;;;;;;;0.50;0.50;;;7.80;99.90;;;;;;5043698;28;20793;-78
2022/02/16 07:26:52;;;;;;;0.50;0.50;;;7.40;99.90;;;;;;5046218;28;20285;-76
2022/02/16 07:29:21;;;;;;;0.50;0.50;;;7.50;99.90;;;;;;5042880;28;21035;-76
2022/02/16 07:31:50;;;;;;;1.47;0.60;;;7.60;99.90;;;;;;5044383;28;20493;-77
2022/02/16 07:34:19;;;;;;;0.50;0.50;;;7.40;99.90;;;;;;5045209;28;20448;-75
2022/02/16 07:36:49;;;;;;;0.97;0.50;;;7.30;99.90;;;;;;5045928;28;20958;-76
2022/02/16 07:39:17;;;;;;;0.50;0.50;;;7.20;99.90;;;;;;5043647;28;20541;-76
2022/02/16 07:41:46;;;;;;;0.50;0.50;;;7.20;1.00;;;;;;5040990;28;20471;-76
2022/02/16 07:44:14;;;;;;;1.47;0.50;;;7.50;99.90;;;;;;5042725;28;20453;-76
2022/02/16 07:46:44;;;;;;;0.57;0.57;;;7.30;99.90;;;;;;5045919;28;20487;-75
2022/02/16 07:49:12;;;;;;;0.67;0.57;;;7.40;1.00;;;;;;5043387;28;20443;-76
2022/02/16 07:51:40;;;;;;;0.60;0.60;;;7.50;99.90;;;;;;5045400;28;20463;-76
2022/02/16 07:54:09;;;;;;;0.40;0.40;;;7.50;99.90;;;;;;5044121;28;20460;-76
2022/02/16 07:56:38;;;;;;;0.40;0.40;;;7.60;99.90;;;;;;5042123;28;20470;-76
2022/02/16 07:59:06;;;;;;;0.50;0.50;;;7.30;1.00;;;;;;5041750;28;20827;-76
2022/02/16 08:01:35;;;;;;;0.97;0.47;;;7.30;1.00;;;;;;5044875;28;20818;-76
2022/02/16 08:04:16;;;;;;;0.50;0.50;;;7.10;1.00;;;;;;5044085;28;20443;-76
2022/02/16 08:06:46;;;;;;;0.60;0.60;;;7.10;1.00;;;;;;5040421;28;20205;-76
2022/02/16 08:09:16;;;;;;;0.53;0.50;;;7.40;1.00;;;;;;5044241;28;20531;-77
2022/02/16 08:11:45;;;;;;;0.50;0.50;;;7.30;1.00;;;;;;5043885;28;20526;-76
2022/02/16 08:14:14;;;;;;;0.50;0.50;;;7.40;1.00;;;;;;5040101;28;20857;-76
2022/02/16 08:16:42;;;;;;;0.73;0.50;;;7.50;1.00;;;;;;5040632;28;20456;-75
2022/02/16 08:19:12;;;;;;;0.50;0.50;;;7.50;1.00;;;;;;5043345;28;20451;-76
2022/02/16 08:21:42;;;;;;;0.50;0.40;;;7.20;1.00;;;;;;5047014;28;20467;-77
2022/02/16 08:24:12;;;;;;;0.50;0.50;;;7.20;1.00;;;;;;5043881;28;20536;-75
2022/02/16 08:26:40;;;;;;;0.53;0.53;;;7.00;1.00;;;;;;5041122;28;20456;-76
2022/02/16 08:29:08;;;;;;;0.90;0.50;;;7.20;1.00;;;;;;5048240;28;20444;-76
2022/02/16 08:31:36;;;;;;;0.50;0.50;;;7.40;1.00;;;;;;5042620;28;20509;-75
2022/02/16 08:34:05;;;;;;;1.00;0.60;;;7.40;1.00;;;;;;5046448;28;20476;-75
2022/02/16 08:36:37;;;;;;;0.60;0.57;;;7.20;99.90;;;;;;5041981;28;20529;-77
2022/02/16 08:39:06;;;;;;;0.60;0.60;;;7.10;99.90;;;;;;5044908;28;20446;-76
2022/02/16 08:41:37;;;;;;;1.33;0.60;;;7.20;99.90;;;;;;5040250;28;20483;-76
2022/02/16 08:44:06;;;;;;;0.50;0.50;;;7.40;99.90;;;;;;5040732;28;21058;-76
2022/02/16 08:46:34;;;;;;;0.50;0.50;;;7.50;98.20;;;;;;5040863;28;20449;-76
2022/02/16 08:49:03;;;;;;;0.67;0.60;;;7.30;99.90;;;;;;5043242;28;20460;-75
2022/02/16 08:51:31;;;;;;;0.50;0.50;;;7.10;99.90;;;;;;5045952;28;21022;-76
2022/02/16 08:54:01;;;;;;;0.40;0.40;;;7.10;1.00;;;;;;5045746;28;20481;-76
2022/02/16 08:56:29;;;;;;;0.50;0.50;;;7.20;1.00;;;;;;5042614;28;20470;-76
2022/02/16 08:59:00;;;;;;;1.00;0.60;;;7.40;99.90;;;;;;5041406;28;20465;-76
2022/02/16 09:01:31;;;;;;;0.43;0.43;;;7.50;99.90;;;;;;5041708;28;20805;-76
2022/02/16 09:03:59;;;;;;;0.40;0.40;;;7.60;99.90;;;;;;5038863;28;20467;-76
2022/02/16 09:06:28;;;;;;;0.43;0.43;;;7.60;99.90;;;;;;5045688;28;20460;-76
2022/02/16 09:08:57;;;;;;;0.73;0.50;;;7.50;99.90;;;;;;5045085;28;20456;-75
2022/02/16 09:11:29;;;;;;;0.43;0.43;;;7.50;99.90;;;;;;5043598;28;20504;-75
2022/02/16 09:13:58;;;;;;;0.53;0.50;;;7.40;99.90;;;;;;5038672;28;20476;-76
2022/02/16 09:16:26;;;;;;;0.50;0.50;;;7.30;99.90;;;;;;5041501;28;21123;-76
2022/02/16 09:18:55;;;;;;;0.50;0.50;;;7.40;99.90;;;;;;5040659;28;20452;-75
2022/02/16 09:21:23;;;;;;;0.37;0.37;;;7.20;1.00;;;;;;5044752;28;20491;-75
2022/02/16 09:23:51;;;;;;;0.50;0.50;;;7.20;1.00;;;;;;5045708;28;20444;-75
2022/02/16 09:26:20;;;;;;;0.60;0.50;;;7.00;1.00;;;;;;5041324;28;20471;-75
2022/02/16 09:28:49;;;;;;;0.50;0.50;;;7.00;99.90;;;;;;5039591;28;20202;-76
2022/02/16 09:31:18;;;;;;;0.50;0.50;;;7.10;1.00;;;;;;5037654;28;20472;-76
2022/02/16 09:33:46;;;;;;;0.80;0.80;;;7.10;1.00;;;;;;5039353;28;20567;-75
2022/02/16 09:36:14;;;;;;;1.60;0.60;;;7.20;1.00;;;;;;5047826;28;21090;-76
2022/02/16 09:38:43;;;;;;;0.70;0.57;;;7.30;1.00;;;;;;5037747;28;20449;-75
2022/02/16 09:41:12;;;;;;;0.53;0.50;;;7.20;1.00;;;;;;5042989;28;20847;-75
2022/02/16 09:43:40;;;;;;;0.40;0.40;;;7.30;1.00;;;;;;5043244;28;20956;-75
2022/02/16 09:46:10;;;;;;;0.50;0.50;;;7.30;1.00;;;;;;5040595;28;20479;-74
2022/02/16 09:48:41;;;;;;;0.40;0.40;;;7.20;1.00;;;;;;5041310;28;20189;-75
2022/02/16 09:51:10;;;;;;;0.40;0.40;;;7.30;6.40;;;;;;5039337;28;20467;-75
2022/02/16 09:53:38;;;;;;;0.40;0.40;;;7.30;1.00;;;;;;5036832;28;20480;-76
2022/02/16 09:56:09;;;;;;;0.53;0.50;;;7.30;1.00;;;;;;5041889;28;20467;-76
2022/02/16 09:58:38;;;;;;;4.03;0.50;;;7.40;1.00;;;;;;5044714;28;20467;-75
2022/02/16 10:01:07;;;;;;;1.20;0.60;;;7.50;1.00;;;;;;5041435;28;20479;-76
2022/02/16 10:03:37;;;;;;;0.60;0.60;;;7.60;1.00;;;;;;5042552;28;20447;-75
2022/02/16 10:06:37;;;;;;;0.60;0.43;;;7.40;28.80;;;;;;5042056;28;20470;-78
2022/02/16 10:09:06;;;;;;;0.50;0.50;;;7.40;99.90;;;;;;5035847;28;20513;-76
2022/02/16 10:11:35;;;;;;;1.27;0.60;;;7.40;99.90;;;;;;5043056;28;20489;-75
2022/02/16 10:14:16;;;;;;;1.13;0.60;;;7.40;99.90;;;;;;5038927;28;20893;-76
2022/02/16 10:16:44;;;;;;;0.50;0.50;;;7.50;1.00;;;;;;5036900;28;20531;-76
2022/02/16 10:19:14;;;;;;;0.50;0.50;;;7.50;99.90;;;;;;5036335;28;20543;-75
2022/02/16 10:22:03;;;;;;;0.57;0.57;;;7.60;1.00;;;;;;5043319;28;20464;-75
2022/02/16 10:24:32;;;;;;;0.40;0.40;;;7.90;1.00;;;;;;5040379;28;20524;-75
2022/02/16 10:27:00;;;;;;;1.53;0.60;;;7.90;1.00;;;;;;5050649;28;20449;-76
2022/02/16 10:29:31;;;;;;;0.47;0.40;;;8.20;1.00;;;;;;5047659;28;20463;-76
2022/02/16 10:32:00;;;;;;;0.63;0.50;;;8.10;99.90;;;;;;5044695;28;20478;-75
2022/02/16 10:34:50;;;;;;;0.73;0.60;;;8.10;1.00;;;;;;5039392;28;20479;-76
2022/02/16 10:37:19;;;;;;;1.90;0.50;;;7.90;1.00;;;;;;5044917;28;20460;-77
2022/02/16 10:40:13;;;;;;;0.60;0.60;;;7.80;99.90;;;;;;5053850;28;20457;-76
2022/02/16 10:42:55;;;;;;;0.40;0.40;;;8.00;99.90;;;;;;5053037;28;20478;-75
2022/02/16 10:45:26;;;;;;;0.50;0.50;;;7.90;99.90;;;;;;5052575;28;20447;-76
2022/02/16 10:47:57;;;;;;;0.73;0.50;;;8.10;99.90;;;;;;5052327;28;20448;-76
2022/02/16 10:50:29;;;;;;;0.40;0.40;;;8.30;1.00;;;;;;5047995;28;20465;-76
2022/02/16 10:52:59;;;;;;;0.50;0.50;;;8.40;1.00;;;;;;5052573;28;20462;-75
2022/02/16 10:55:45;;;;;;;1.37;0.50;;;8.50;1.00;;;;;;5045406;28;20491;-77
2022/02/16 10:58:17;;;;;;;0.50;0.50;;;8.60;1.00;;;;;;5047186;28;20450;-76
2022/02/16 11:00:47;;;;;;;0.60;0.50;;;8.70;1.00;;;;;;5051773;28;20568;-76
2022/02/16 11:03:26;;;;;;;0.40;0.40;;;9.20;99.90;;;;;;5048254;28;20473;-76
2022/02/16 11:05:58;;;;;;;0.50;0.47;;;9.50;22.40;;;;;;5053515;28;20457;-76
2022/02/16 11:08:29;;;;;;;0.50;0.50;;;9.80;1.00;;;;;;5053701;28;20464;-76
2022/02/16 11:11:18;;;;;;;0.50;0.50;;;10.30;1.00;;;;;;5039589;28;20502;-76
2022/02/16 11:13:53;;;;;;;0.70;0.50;;;10.40;1.00;;;;;;5051754;28;20475;-76
2022/02/16 11:16:22;;;;;;;0.70;0.70;;;10.30;1.00;;;;;;5043043;28;20915;-76
2022/02/16 11:18:54;;;;;;;0.40;0.40;;;10.10;1.00;;;;;;5046220;28;20839;-76
2022/02/16 11:21:26;;;;;;;0.60;0.50;;;9.90;1.00;;;;;;5043505;28;20475;-76
2022/02/16 11:23:56;;;;;;;1.90;0.50;;;9.70;1.00;;;;;;5053633;28;20458;-76
2022/02/16 11:26:34;;;;;;;0.53;0.53;;;9.60;53.90;;;;;;5043963;28;20821;-76
2022/02/16 11:29:07;;;;;;;0.40;0.40;;;9.70;99.90;;;;;;5053441;28;20481;-76
2022/02/16 11:31:41;;;;;;;0.50;0.50;;;9.90;1.00;;;;;;5048935;28;20521;-76
2022/02/16 11:34:19;;;;;;;0.40;0.40;;;9.70;99.90;;;;;;5048432;28;20481;-76
2022/02/16 11:36:53;;;;;;;0.50;0.50;;;9.70;99.90;;;;;;5078673;28;21006;-76
2022/02/16 11:39:59;;;;;;;0.50;0.50;;;9.70;99.90;;;;;;5039014;28;20959;-76
2022/02/16 11:42:51;;;;;;;0.50;0.50;;;9.70;99.90;;;;;;5043368;28;20458;-76
2022/02/16 11:45:21;;;;;;;0.50;0.50;;;9.90;99.90;;;;;;5035769;28;20467;-76
2022/02/16 11:47:55;;;;;;;0.40;0.40;;;10.10;99.90;;;;;;5041063;28;20452;-76
2022/02/16 11:50:35;;;;;;;0.50;0.50;;;10.10;99.90;;;;;;5044998;28;20479;-77
2022/02/16 11:53:06;;;;;;;0.43;0.43;;;10.30;99.00;;;;;;5048903;28;20477;-76
2022/02/16 11:55:36;;;;;;;0.40;0.40;;;10.20;99.90;;;;;;5045424;28;21016;-74
2022/02/16 11:58:18;;;;;;;0.50;0.43;;;10.10;99.90;;;;;;5049539;28;20455;-76
2022/02/16 12:00:58;;;;;;;0.50;0.50;;;10.20;99.90;;;;;;5042342;28;20856;-76
2022/02/16 12:03:29;;;;;;;0.60;0.60;;;10.20;99.90;;;;;;5044545;28;20499;-76
2022/02/16 12:06:17;;;;;;;0.40;0.40;;;10.10;99.90;;;;;;5042607;28;20448;-76
2022/02/16 12:09:06;;;;;;;0.40;0.40;;;9.90;1.00;;;;;;5034768;28;20467;-76
2022/02/16 12:11:38;;;;;;;0.90;0.60;;;10.00;1.00;;;;;;5042579;28;20489;-76
2022/02/16 12:14:13;;;;;;;0.50;0.50;;;10.20;1.00;;;;;;5042053;28;20454;-76
2022/02/16 12:16:44;;;;;;;0.70;0.57;;;10.30;1.00;;;;;;5042764;28;20971;-77
2022/02/16 12:19:16;;;;;;;0.83;0.40;;;10.20;1.00;;;;;;5045386;28;20473;-76
2022/02/16 12:21:47;;;;;;;1.07;0.50;;;10.30;1.00;;;;;;5039325;28;21068;-77
2022/02/16 12:24:19;;;;;;;0.50;0.50;;;10.20;1.00;;;;;;5042456;28;20477;-75
2022/02/16 12:26:50;;;;;;;0.40;0.40;;;10.30;1.00;;;;;;5043793;28;21036;-77
2022/02/16 12:29:21;;;;;;;0.80;0.50;;;10.30;1.00;;;;;;5044490;28;20451;-76
2022/02/16 12:31:51;;;;;;;0.40;0.40;;;10.30;1.00;;;;;;5044671;28;20919;-75
2022/02/16 12:34:21;;;;;;;0.50;0.50;;;10.30;1.00;;;;;;5049176;28;20513;-74
2022/02/16 12:36:51;;;;;;;0.50;0.50;;;10.10;99.90;;;;;;5048246;28;20444;-75
2022/02/16 12:39:28;;;;;;;0.40;0.40;;;10.30;92.20;;;;;;5042219;28;20536;-76
2022/02/16 12:42:01;;;;;;;0.40;0.40;;;10.30;86.40;;;;;;5042492;28;21071;-75
2022/02/16 12:44:31;;;;;;;0.30;0.30;;;10.10;99.90;;;;;;5034729;28;20444;-75
2022/02/16 12:47:01;;;;;;;0.40;0.40;;;10.30;1.00;;;;;;5040404;28;20478;-76
2022/02/16 12:49:30;;;;;;;0.40;0.40;;;10.00;42.10;;;;;;5041242;28;20454;-75
2022/02/16 12:52:01;;;;;;;1.07;0.50;;;9.90;1.00;;;;;;5038225;28;20492;-75
2022/02/16 12:54:32;;;;;;;0.50;0.50;;;10.00;60.90;;;;;;5034840;28;20458;-75
2022/02/16 12:57:03;;;;;;;0.70;0.50;;;10.10;1.00;;;;;;5044064;28;20975;-76
2022/02/16 12:59:36;;;;;;;0.50;0.50;;;10.20;99.90;;;;;;5048311;28;21297;-76
2022/02/16 13:02:16;;;;;;;0.40;0.40;;;10.20;99.90;;;;;;5043494;28;20463;-76
2022/02/16 13:04:51;;;;;;;0.40;0.40;;;10.10;99.90;;;;;;5044226;28;20543;-75
2022/02/16 13:07:21;;;;;;;0.40;0.40;;;10.10;99.90;;;;;;5043461;28;21761;-76
2022/02/16 13:09:52;;;;;;;0.40;0.40;;;10.00;99.90;;;;;;5043645;28;20533;-76
2022/02/16 13:12:34;;;;;;;0.50;0.50;;;10.10;99.90;;;;;;5043789;28;20476;-75
2022/02/16 13:15:04;;;;;;;0.50;0.50;;;10.10;99.90;;;;;;5041572;28;20487;-75